Terminal Aerodrome Forecast
Issued by NWS Huntsville, AL

Home | Current Version | Previous Version | Text Only | Print | Product List | Glossary On
Versions: 1 2 3 4 5 6 7 8 9 10 11 12 13 14 15 16 17 18 19 20 21 22
000
FTUS44 KHUN 251120
TAFHSV
TAF
KHSV 251120Z 2512/2612 VRB04KT P6SM OVC025
     FM251400 33008KT P6SM OVC020
     FM251800 33010G15KT P6SM OVC040
     FM252200 34007KT P6SM OVC100
     FM260700 VRB04KT 6SM -SHRA OVC015=

USA.gov is the U.S. government's official web portal to all federal, state and local government web resources and services.